createdAt,value
2023-04-23T00:01:48.181Z,100170.78
2023-04-23T00:04:19.004Z,100165.91
2023-04-23T00:06:48.072Z,100162.97
2023-04-23T00:09:16.809Z,100166.72
2023-04-23T00:11:43.847Z,100163.31
2023-04-23T00:14:13.980Z,100166.09
2023-04-23T00:16:41.065Z,100167.91
2023-04-23T00:19:07.737Z,100162.91
2023-04-23T00:21:34.294Z,100169.22
2023-04-23T00:24:00.911Z,100169.84
2023-04-23T00:26:27.554Z,100162.66
2023-04-23T00:28:54.254Z,100157.13
2023-04-23T00:31:22.602Z,100162.09
2023-04-23T00:33:49.223Z,100160.91
2023-04-23T00:36:15.792Z,100156.19
2023-04-23T00:38:42.356Z,100156.28
2023-04-23T00:41:09.053Z,100147.66
2023-04-23T00:43:35.704Z,100154.34
2023-04-23T00:46:02.858Z,100156.59
2023-04-23T00:48:29.808Z,100154.28
2023-04-23T00:51:00.834Z,100154.59
2023-04-23T00:53:27.477Z,100152.25
2023-04-23T00:55:54.607Z,100146.97
2023-04-23T00:58:21.522Z,100147.91
2023-04-23T01:00:49.212Z,100154.97
2023-04-23T01:03:18.449Z,100160.00
2023-04-23T01:05:45.563Z,100157.97
2023-04-23T01:08:15.991Z,100151.91
2023-04-23T01:10:47.252Z,100149.94
2023-04-23T01:13:14.003Z,100160.09
2023-04-23T01:15:40.660Z,100153.66
2023-04-23T01:18:11.058Z,100150.13
2023-04-23T01:20:37.965Z,100149.41
2023-04-23T01:23:05.109Z,100160.31
2023-04-23T01:25:32.004Z,100157.75
2023-04-23T01:27:58.826Z,100154.78
2023-04-23T01:30:27.852Z,100149.16
2023-04-23T01:32:56.175Z,100140.41
2023-04-23T01:35:23.865Z,100148.63
2023-04-23T01:37:54.445Z,100150.31
2023-04-23T01:40:21.413Z,100155.66
2023-04-23T01:42:48.689Z,100149.59
2023-04-23T01:45:15.620Z,100149.81
2023-04-23T01:47:42.455Z,100153.34
2023-04-23T01:50:09.895Z,100149.59
2023-04-23T01:52:36.561Z,100147.91
2023-04-23T01:55:03.481Z,100150.03
2023-04-23T01:57:30.521Z,100140.31
2023-04-23T02:00:08.177Z,100137.13
2023-04-23T02:02:39.729Z,100139.56
2023-04-23T02:05:19.562Z,100145.53
2023-04-23T02:07:48.608Z,100137.41
2023-04-23T02:10:15.601Z,100139.34
2023-04-23T02:12:42.575Z,100143.00
2023-04-23T02:15:11.088Z,100138.19
2023-04-23T02:17:39.954Z,100132.88
2023-04-23T02:20:09.773Z,100132.88
2023-04-23T02:22:37.937Z,100135.06
2023-04-23T02:25:05.638Z,100138.25
2023-04-23T02:27:33.374Z,100136.13
2023-04-23T02:30:00.176Z,100133.44
2023-04-23T02:32:28.103Z,100138.16
2023-04-23T02:34:55.028Z,100134.31
2023-04-23T02:37:21.592Z,100138.13
2023-04-23T02:39:48.137Z,100136.88
2023-04-23T02:42:14.784Z,100135.69
2023-04-23T02:44:41.699Z,100138.47
2023-04-23T02:47:08.489Z,100133.44
2023-04-23T02:49:35.099Z,100129.38
2023-04-23T02:52:01.859Z,100131.84
2023-04-23T02:54:28.525Z,100136.22
2023-04-23T02:56:55.161Z,100126.38
2023-04-23T02:59:21.769Z,100131.97
2023-04-23T03:01:48.348Z,100125.97
2023-04-23T03:04:14.963Z,100120.53
2023-04-23T03:06:41.984Z,100121.38
2023-04-23T03:09:08.960Z,100122.78
2023-04-23T03:11:35.537Z,100119.56
2023-04-23T03:14:02.131Z,100129.19
2023-04-23T03:16:31.295Z,100116.78
2023-04-23T03:18:59.306Z,100120.53
2023-04-23T03:21:26.125Z,100121.47
2023-04-23T03:23:52.805Z,100124.97
2023-04-23T03:26:19.371Z,100118.84
2023-04-23T03:28:46.057Z,100122.38
2023-04-23T03:31:12.630Z,100126.16
2023-04-23T03:33:39.262Z,100130.50
2023-04-23T03:36:05.920Z,100132.94
2023-04-23T03:38:32.532Z,100124.59
2023-04-23T03:40:59.155Z,100124.59
2023-04-23T03:43:25.800Z,100130.59
2023-04-23T03:45:52.360Z,100137.81
2023-04-23T03:48:18.955Z,100140.41
2023-04-23T03:50:45.651Z,100132.50
2023-04-23T03:53:12.395Z,100143.06
2023-04-23T03:55:39.026Z,100131.25
2023-04-23T03:58:05.856Z,100139.88
2023-04-23T04:00:32.489Z,100142.22
2023-04-23T04:03:00.683Z,100142.47
2023-04-23T04:05:28.077Z,100144.03
2023-04-23T04:07:55.734Z,100144.75
2023-04-23T04:10:22.493Z,100141.28
2023-04-23T04:12:49.423Z,100146.97
2023-04-23T04:15:17.442Z,100142.91
2023-04-23T04:17:46.005Z,100140.03
2023-04-23T04:20:12.986Z,100153.56
2023-04-23T04:22:39.932Z,100146.00
2023-04-23T04:25:07.069Z,100152.28
2023-04-23T04:27:34.665Z,100151.53
2023-04-23T04:30:02.167Z,100157.34
2023-04-23T04:32:28.799Z,100159.94
2023-04-23T04:34:55.416Z,100164.44
2023-04-23T04:37:21.968Z,100158.50
2023-04-23T04:39:48.668Z,100161.38
2023-04-23T04:42:15.729Z,100159.91
2023-04-23T04:44:43.673Z,100162.03
2023-04-23T04:47:10.759Z,100163.22
2023-04-23T04:49:38.396Z,100170.69
2023-04-23T04:52:05.331Z,100163.97
2023-04-23T04:54:31.976Z,100169.50
2023-04-23T04:56:58.592Z,100173.59
2023-04-23T04:59:25.227Z,100156.06
2023-04-23T05:01:51.853Z,100160.63
2023-04-23T05:04:18.676Z,100159.00
2023-04-23T05:06:45.377Z,100168.19
2023-04-23T05:09:12.003Z,100160.25
2023-04-23T05:11:38.674Z,100163.00
2023-04-23T05:14:05.279Z,100170.31
2023-04-23T05:16:32.008Z,100162.28
2023-04-23T05:18:58.702Z,100165.13
2023-04-23T05:21:27.485Z,100165.19
2023-04-23T05:23:55.211Z,100168.75
2023-04-23T05:26:21.920Z,100160.75
2023-04-23T05:28:48.480Z,100170.53
2023-04-23T05:31:15.210Z,100165.97
2023-04-23T05:33:49.720Z,100160.50
2023-04-23T05:36:17.880Z,100161.00
2023-04-23T05:38:44.478Z,100161.78
2023-04-23T05:41:11.188Z,100153.88
2023-04-23T05:43:37.768Z,100159.81
2023-04-23T05:46:07.787Z,100158.72
2023-04-23T05:48:34.748Z,100164.66
2023-04-23T05:51:01.558Z,100163.28
2023-04-23T05:53:28.609Z,100162.75
2023-04-23T05:55:55.316Z,100160.63
2023-04-23T05:58:22.196Z,100160.19
2023-04-23T06:00:49.886Z,100153.94
2023-04-23T06:03:16.662Z,100164.66
2023-04-23T06:05:43.522Z,100157.38
2023-04-23T06:08:10.192Z,100163.38
2023-04-23T06:10:36.829Z,100158.97
2023-04-23T06:13:03.475Z,100165.28
2023-04-23T06:15:30.068Z,100162.72
2023-04-23T06:17:56.798Z,100157.81
2023-04-23T06:20:23.419Z,100160.97
2023-04-23T06:22:49.963Z,100158.88
2023-04-23T06:25:16.562Z,100161.56
2023-04-23T06:27:43.150Z,100157.63
2023-04-23T06:30:09.974Z,100159.75
2023-04-23T06:32:36.552Z,100162.06
2023-04-23T06:35:04.532Z,100161.63
2023-04-23T06:37:31.784Z,100160.47
2023-04-23T06:39:59.568Z,100161.03
2023-04-23T06:42:26.392Z,100159.00
2023-04-23T06:44:53.017Z,100160.66
2023-04-23T06:47:20.185Z,100172.28
2023-04-23T06:49:46.831Z,100163.72
2023-04-23T06:52:13.439Z,100163.38
2023-04-23T06:54:40.180Z,100156.97
2023-04-23T06:57:07.086Z,100163.00
2023-04-23T06:59:33.777Z,100156.72
2023-04-23T07:02:00.490Z,100160.03
2023-04-23T07:04:27.120Z,100155.38
2023-04-23T07:06:53.699Z,100157.41
2023-04-23T07:09:20.257Z,100148.06
2023-04-23T07:11:47.344Z,100154.22
2023-04-23T07:14:13.879Z,100158.94
2023-04-23T07:16:40.483Z,100153.63
2023-04-23T07:19:07.063Z,100151.03
2023-04-23T07:21:33.644Z,100150.63
2023-04-23T07:24:00.855Z,100155.75
2023-04-23T07:26:28.054Z,100153.31
2023-04-23T07:28:54.715Z,100146.78
2023-04-23T07:31:21.982Z,100140.25
2023-04-23T07:33:48.592Z,100145.19
2023-04-23T07:36:15.399Z,100137.47
2023-04-23T07:38:43.351Z,100134.44
2023-04-23T07:41:10.071Z,100136.50
2023-04-23T07:43:36.716Z,100142.09
2023-04-23T07:46:03.442Z,100138.88
2023-04-23T07:48:30.120Z,100133.47
2023-04-23T07:50:57.159Z,100132.97
2023-04-23T07:53:23.801Z,100133.97
2023-04-23T07:55:50.413Z,100135.13
2023-04-23T07:58:17.360Z,100143.72
2023-04-23T08:00:43.963Z,100137.59
2023-04-23T08:03:10.660Z,100136.50
2023-04-23T08:05:39.154Z,100139.00
2023-04-23T08:08:05.930Z,100132.84
2023-04-23T08:10:32.655Z,100134.28
2023-04-23T08:12:59.239Z,100129.47
2023-04-23T08:15:25.832Z,100134.22
2023-04-23T08:17:52.400Z,100133.94
2023-04-23T08:20:19.322Z,100131.09
2023-04-23T08:22:46.204Z,100125.50
2023-04-23T08:25:15.713Z,100123.81
2023-04-23T08:27:42.285Z,100119.91
2023-04-23T08:30:09.593Z,100122.00
2023-04-23T08:32:36.228Z,100129.03
2023-04-23T08:35:02.977Z,100123.16
2023-04-23T08:37:31.399Z,100118.53
2023-04-23T08:39:58.630Z,100116.38
2023-04-23T08:42:38.650Z,100116.97
2023-04-23T08:45:06.094Z,100119.66
2023-04-23T08:47:33.483Z,100112.97
2023-04-23T08:50:00.166Z,100107.50
2023-04-23T08:52:33.115Z,100099.44
2023-04-23T08:55:10.734Z,100103.13
2023-04-23T08:57:40.113Z,100103.25
2023-04-23T09:00:08.624Z,100097.50
2023-04-23T09:02:36.229Z,100098.59
2023-04-23T09:05:04.608Z,100099.91
2023-04-23T09:07:31.304Z,100088.91
2023-04-23T09:09:58.394Z,100095.91
2023-04-23T09:12:24.988Z,100094.31
2023-04-23T09:14:51.500Z,100087.38
2023-04-23T09:17:19.516Z,100085.44
2023-04-23T09:19:46.696Z,100090.91
2023-04-23T09:22:13.313Z,100075.47
2023-04-23T09:24:46.043Z,100078.25
2023-04-23T09:27:12.642Z,100092.16
2023-04-23T09:29:39.386Z,100084.22
2023-04-23T09:32:10.506Z,100079.19
2023-04-23T09:34:41.257Z,100088.88
2023-04-23T09:37:08.105Z,100083.84
2023-04-23T09:39:36.104Z,100079.84
2023-04-23T09:42:04.796Z,100080.25
2023-04-23T09:44:35.142Z,100085.31
2023-04-23T09:47:15.808Z,100076.66
2023-04-23T09:49:47.685Z,100078.34
2023-04-23T09:52:14.346Z,100073.28
2023-04-23T09:54:41.046Z,100070.56
2023-04-23T09:57:08.908Z,100069.03
2023-04-23T09:59:47.756Z,100069.69
2023-04-23T10:02:19.010Z,100052.19
2023-04-23T10:04:52.064Z,100053.22
2023-04-23T10:07:20.662Z,100059.25
2023-04-23T10:09:48.322Z,100046.75
2023-04-23T10:14:46.748Z,100047.88
2023-04-23T10:17:13.978Z,100050.13
2023-04-23T10:19:43.618Z,100044.16
2023-04-23T10:22:19.337Z,100036.31
2023-04-23T10:24:49.691Z,100042.16
2023-04-23T10:27:28.817Z,100033.84
2023-04-23T10:30:06.400Z,100034.84
2023-04-23T10:32:37.557Z,100032.28
2023-04-23T10:35:05.122Z,100036.53
2023-04-23T10:37:32.186Z,100027.91
2023-04-23T10:40:14.190Z,100032.13
2023-04-23T10:42:42.791Z,100027.66
2023-04-23T10:45:24.120Z,100023.25
2023-04-23T10:47:52.813Z,100017.84
2023-04-23T10:50:30.768Z,100026.59
2023-04-23T10:52:58.310Z,100012.50
2023-04-23T10:55:28.549Z,100017.41
2023-04-23T10:58:03.151Z,100017.25
2023-04-23T11:00:43.158Z,99993.72
2023-04-23T11:03:37.939Z,100014.78
2023-04-23T11:06:07.143Z,100008.84
2023-04-23T11:08:37.676Z,100016.16
2023-04-23T11:11:08.723Z,100021.28
2023-04-23T11:13:35.399Z,100006.84
2023-04-23T11:16:22.588Z,99998.84
2023-04-23T11:18:56.500Z,99992.13
2023-04-23T11:21:23.042Z,100002.03
2023-04-23T11:23:49.604Z,100000.81
2023-04-23T11:26:18.670Z,100004.34
2023-04-23T11:28:46.462Z,100003.56
2023-04-23T11:31:13.133Z,100018.31
2023-04-23T11:33:39.774Z,99996.03
2023-04-23T11:36:06.860Z,99997.16
2023-04-23T11:38:36.876Z,100002.72
2023-04-23T11:41:03.472Z,100005.09
2023-04-23T11:43:30.355Z,99989.94
2023-04-23T11:45:57.380Z,99988.00
2023-04-23T11:48:24.136Z,99984.66
2023-04-23T11:50:50.661Z,99971.59
2023-04-23T11:53:19.056Z,99976.44
2023-04-23T11:55:49.228Z,99973.16
2023-04-23T11:58:18.760Z,99972.34
2023-04-23T12:00:45.461Z,99987.06
2023-04-23T12:03:13.930Z,99971.03
2023-04-23T12:05:42.506Z,99952.59
2023-04-23T12:08:17.456Z,99955.84
2023-04-23T12:10:52.167Z,99960.94
2023-04-23T12:13:24.479Z,99954.19
2023-04-23T12:15:56.651Z,99955.88
2023-04-23T12:18:30.832Z,99951.63
2023-04-23T12:21:13.567Z,99953.88
2023-04-23T12:23:42.738Z,99944.81
2023-04-23T12:26:13.852Z,99949.09
2023-04-23T12:28:59.180Z,99948.06
2023-04-23T12:31:28.332Z,99935.94
2023-04-23T12:33:59.460Z,99927.94
2023-04-23T12:36:29.499Z,99940.00
2023-04-23T12:38:56.335Z,99928.81
2023-04-23T12:41:23.102Z,99924.91
2023-04-23T12:43:51.156Z,99921.97
2023-04-23T12:46:17.807Z,99919.94
2023-04-23T12:48:44.653Z,99918.34
2023-04-23T12:51:11.321Z,99916.13
2023-04-23T12:53:37.925Z,99907.81
2023-04-23T12:56:04.998Z,99909.44
2023-04-23T12:58:31.611Z,99911.56
2023-04-23T13:00:58.349Z,99909.25
2023-04-23T13:03:25.745Z,99910.63
2023-04-23T13:05:53.775Z,99902.16
2023-04-23T13:08:20.333Z,99897.53
2023-04-23T13:10:46.918Z,99893.91
2023-04-23T13:13:13.476Z,99894.50
2023-04-23T13:15:40.038Z,99895.22
2023-04-23T13:18:06.898Z,99886.41
2023-04-23T13:20:33.729Z,99876.97
2023-04-23T13:23:01.498Z,99879.53
2023-04-23T13:25:28.113Z,99877.63
2023-04-23T13:27:56.155Z,99879.41
2023-04-23T13:30:22.998Z,99875.00
2023-04-23T13:32:49.593Z,99861.09
2023-04-23T13:35:17.673Z,99871.34
2023-04-23T13:37:44.357Z,99861.94
2023-04-23T13:40:11.337Z,99853.44
2023-04-23T13:42:37.929Z,99841.22
2023-04-23T13:45:06.434Z,99844.78
2023-04-23T13:47:34.813Z,99835.59
2023-04-23T13:50:06.642Z,99836.16
2023-04-23T13:52:33.847Z,99830.63
2023-04-23T13:55:02.768Z,99835.34
2023-04-23T13:57:29.580Z,99837.91
2023-04-23T13:59:56.165Z,99838.97
2023-04-23T14:02:24.057Z,99835.69
2023-04-23T14:04:50.775Z,99838.88
2023-04-23T14:07:17.515Z,99832.06
2023-04-23T14:09:46.477Z,99826.41
2023-04-23T14:12:13.071Z,99825.97
2023-04-23T14:14:39.716Z,99822.19
2023-04-23T14:17:06.464Z,99819.84
2023-04-23T14:19:36.017Z,99819.84
2023-04-23T14:22:02.965Z,99812.59
2023-04-23T14:24:35.042Z,99809.47
2023-04-23T14:27:03.736Z,99810.00
2023-04-23T14:29:46.864Z,99802.53
2023-04-23T14:32:14.287Z,99805.41
2023-04-23T14:34:41.011Z,99799.97
2023-04-23T14:37:07.835Z,99800.78
2023-04-23T14:39:34.705Z,99811.22
2023-04-23T14:42:03.633Z,99804.22
2023-04-23T14:44:30.305Z,99805.91
2023-04-23T14:46:57.216Z,99789.38
2023-04-23T14:49:24.187Z,99790.94
2023-04-23T14:51:55.177Z,99794.81
2023-04-23T14:54:22.772Z,99795.50
2023-04-23T14:56:50.469Z,99789.47
2023-04-23T14:59:17.312Z,99784.53
2023-04-23T15:01:44.271Z,99782.22
2023-04-23T15:04:11.814Z,99780.59
2023-04-23T15:06:40.478Z,99787.34
2023-04-23T15:09:07.277Z,99789.06
2023-04-23T15:11:34.025Z,99788.00
2023-04-23T15:14:26.368Z,99783.94
2023-04-23T15:16:53.019Z,99793.03
2023-04-23T15:19:19.676Z,99778.06
2023-04-23T15:21:47.076Z,99784.13
2023-04-23T15:24:14.567Z,99774.41
2023-04-23T15:26:41.216Z,99785.78
2023-04-23T15:29:10.714Z,99783.53
2023-04-23T15:31:38.517Z,99784.97
2023-04-23T15:34:07.403Z,99779.41
2023-04-23T15:36:35.621Z,99774.41
2023-04-23T15:39:02.358Z,99774.88
2023-04-23T15:41:29.001Z,99773.69
2023-04-23T15:43:56.580Z,99772.94
2023-04-23T15:46:23.230Z,99773.94
2023-04-23T15:48:49.843Z,99771.63
2023-04-23T15:51:16.492Z,99761.53
2023-04-23T15:53:43.173Z,99767.31
2023-04-23T15:56:09.714Z,99763.88
2023-04-23T15:58:36.281Z,99763.94
2023-04-23T16:01:03.170Z,99770.59
2023-04-23T16:03:29.996Z,99766.25
2023-04-23T16:05:56.776Z,99754.50
2023-04-23T16:08:23.344Z,99761.09
2023-04-23T16:10:50.002Z,99763.72
2023-04-23T16:13:17.644Z,99749.00
2023-04-23T16:15:44.228Z,99755.72
2023-04-23T16:18:10.921Z,99753.81
2023-04-23T16:20:37.540Z,99757.94
2023-04-23T16:23:04.189Z,99752.81
2023-04-23T16:25:30.880Z,99751.06
2023-04-23T16:27:57.575Z,99754.94
2023-04-23T16:30:24.731Z,99750.69
2023-04-23T16:32:51.604Z,99750.19
2023-04-23T16:35:18.365Z,99747.31
2023-04-23T16:37:45.415Z,99750.84
2023-04-23T16:40:15.091Z,99745.31
2023-04-23T16:42:42.684Z,99747.13
2023-04-23T16:45:09.508Z,99734.16
2023-04-23T16:47:36.477Z,99737.25
2023-04-23T16:50:03.126Z,99736.97
2023-04-23T16:52:29.849Z,99737.53
2023-04-23T16:54:56.398Z,99738.38
2023-04-23T16:57:23.584Z,99738.38
2023-04-23T16:59:51.152Z,99737.19
2023-04-23T17:02:19.320Z,99739.75
2023-04-23T17:04:46.430Z,99732.13
2023-04-23T17:07:13.225Z,99737.94
2023-04-23T17:09:39.882Z,99731.91
2023-04-23T17:12:06.503Z,99730.19
2023-04-23T17:14:33.032Z,99735.31
2023-04-23T17:16:59.641Z,99735.56
2023-04-23T17:19:26.214Z,99740.06
2023-04-23T17:21:52.860Z,99738.31
2023-04-23T17:24:19.472Z,99738.25
2023-04-23T17:26:47.532Z,99734.78
2023-04-23T17:29:14.133Z,99734.50
2023-04-23T17:31:40.943Z,99732.06
2023-04-23T17:34:07.663Z,99736.94
2023-04-23T17:36:34.249Z,99732.91
2023-04-23T17:39:01.012Z,99738.22
2023-04-23T17:41:27.597Z,99735.34
2023-04-23T17:43:54.171Z,99748.22
2023-04-23T17:46:21.384Z,99743.22
2023-04-23T17:48:48.363Z,99750.59
2023-04-23T17:51:15.090Z,99746.97
2023-04-23T17:53:42.302Z,99753.47
2023-04-23T17:56:08.951Z,99754.91
2023-04-23T17:58:36.163Z,99751.22
2023-04-23T18:01:04.862Z,99750.59
2023-04-23T18:03:32.260Z,99756.09
2023-04-23T18:05:59.508Z,99759.22
2023-04-23T18:08:26.269Z,99759.63
2023-04-23T18:10:53.227Z,99759.31
2023-04-23T18:13:19.857Z,99757.69
2023-04-23T18:15:49.927Z,99757.88
2023-04-23T18:18:17.990Z,99758.88
2023-04-23T18:20:46.305Z,99757.25
2023-04-23T18:23:14.263Z,99765.44
2023-04-23T18:25:41.837Z,99771.63
2023-04-23T18:28:08.439Z,99769.75
2023-04-23T18:30:38.011Z,99770.00
2023-04-23T18:33:13.784Z,99779.47
2023-04-23T18:35:47.140Z,99789.38
2023-04-23T18:38:32.260Z,99789.66
2023-04-23T18:41:04.489Z,99785.47
2023-04-23T18:43:34.525Z,99796.50
2023-04-23T18:46:02.163Z,99796.94
2023-04-23T18:48:34.544Z,99803.81
2023-04-23T18:51:24.620Z,99799.91
2023-04-23T18:53:51.330Z,99799.22
2023-04-23T18:56:17.943Z,99793.63
2023-04-23T18:58:44.572Z,99796.41
2023-04-23T19:01:11.256Z,99801.34
2023-04-23T19:03:38.105Z,99802.56
2023-04-23T19:06:07.464Z,99797.84
2023-04-23T19:08:35.772Z,99806.69
2023-04-23T19:11:02.825Z,99796.38
2023-04-23T19:13:32.970Z,99796.41
2023-04-23T19:16:00.028Z,99797.78
2023-04-23T19:18:27.385Z,99806.06
2023-04-23T19:20:53.977Z,99800.31
2023-04-23T19:23:20.927Z,99802.50
2023-04-23T19:25:48.096Z,99805.19
2023-04-23T19:28:15.912Z,99799.44
2023-04-23T19:30:42.537Z,99804.84
2023-04-23T19:33:09.145Z,99798.91
2023-04-23T19:35:39.370Z,99803.59
2023-04-23T19:38:06.955Z,99801.19
2023-04-23T19:40:33.710Z,99802.56
2023-04-23T19:43:00.363Z,99804.91
2023-04-23T19:45:27.039Z,99798.34
2023-04-23T19:47:53.851Z,99797.63
2023-04-23T19:50:20.702Z,99799.09
2023-04-23T19:52:47.383Z,99794.34
2023-04-23T19:55:15.596Z,99793.47
2023-04-23T19:57:42.310Z,99796.78
2023-04-23T20:00:13.541Z,99788.31
2023-04-23T20:02:41.196Z,99785.81
2023-04-23T20:05:10.304Z,99785.75
2023-04-23T20:07:37.764Z,99784.22
2023-04-23T20:10:05.251Z,99781.00
2023-04-23T20:12:33.326Z,99782.69
2023-04-23T20:14:59.948Z,99779.28
2023-04-23T20:17:27.205Z,99776.50
2023-04-23T20:19:53.967Z,99781.19
2023-04-23T20:22:20.600Z,99773.25
2023-04-23T20:24:48.846Z,99782.13
2023-04-23T20:27:18.501Z,99773.81
2023-04-23T20:29:45.188Z,99771.44
2023-04-23T20:32:11.868Z,99784.53
2023-04-23T20:34:38.627Z,99777.47
2023-04-23T20:37:06.840Z,99771.84
2023-04-23T20:39:34.355Z,99776.56
2023-04-23T20:42:01.611Z,99774.41
2023-04-23T20:44:28.196Z,99781.47
2023-04-23T20:46:57.786Z,99779.34
2023-04-23T20:49:27.507Z,99777.81
2023-04-23T20:51:54.145Z,99778.56
2023-04-23T20:54:20.820Z,99775.03
2023-04-23T20:56:47.413Z,99772.81
2023-04-23T20:59:14.478Z,99775.16
2023-04-23T21:01:41.301Z,99772.47
2023-04-23T21:04:08.208Z,99769.25
2023-04-23T21:06:35.050Z,99766.88
2023-04-23T21:09:01.836Z,99763.19
2023-04-23T21:11:29.338Z,99761.25
2023-04-23T21:13:56.176Z,99768.34
2023-04-23T21:16:22.851Z,99759.25
2023-04-23T21:18:49.394Z,99762.94
2023-04-23T21:21:15.935Z,99749.66
2023-04-23T21:23:42.502Z,99757.56
2023-04-23T21:26:09.197Z,99755.41
2023-04-23T21:28:36.896Z,99744.97
2023-04-23T21:31:17.658Z,99748.03
2023-04-23T21:33:44.305Z,99752.19
2023-04-23T21:36:10.882Z,99747.66
2023-04-23T21:38:37.422Z,99741.94
2023-04-23T21:41:04.311Z,99742.31
2023-04-23T21:43:35.370Z,99737.19
2023-04-23T21:46:02.070Z,99734.00
2023-04-23T21:48:28.629Z,99734.22
2023-04-23T21:50:55.330Z,99717.41
2023-04-23T21:53:22.523Z,99721.25
2023-04-23T21:55:49.187Z,99718.00
2023-04-23T21:58:17.805Z,99714.47
2023-04-23T22:00:45.552Z,99712.94
2023-04-23T22:03:18.220Z,99716.50
2023-04-23T22:05:56.001Z,99707.41
2023-04-23T22:08:23.378Z,99705.00
2023-04-23T22:10:49.936Z,99696.41
2023-04-23T22:13:16.913Z,99703.47
2023-04-23T22:15:44.404Z,99700.41
2023-04-23T22:18:11.004Z,99701.09
2023-04-23T22:20:39.161Z,99706.94
2023-04-23T22:23:05.801Z,99701.88
2023-04-23T22:25:32.381Z,99702.88
2023-04-23T22:27:58.938Z,99700.81
2023-04-23T22:30:25.681Z,99694.91
2023-04-23T22:32:52.236Z,99696.59
2023-04-23T22:35:19.101Z,99698.03
2023-04-23T22:37:45.838Z,99694.66
2023-04-23T22:40:12.887Z,99693.13
2023-04-23T22:42:39.463Z,99699.50
2023-04-23T22:45:06.782Z,99689.91
2023-04-23T22:47:33.462Z,99687.22
2023-04-23T22:50:00.095Z,99688.03
2023-04-23T22:52:26.991Z,99686.34
2023-04-23T22:54:54.975Z,99686.34
2023-04-23T22:57:21.687Z,99681.81
2023-04-23T22:59:48.583Z,99671.06
2023-04-23T23:02:16.065Z,99668.38
2023-04-23T23:04:42.875Z,99666.16
2023-04-23T23:07:10.014Z,99661.06
2023-04-23T23:09:36.564Z,99650.97
2023-04-23T23:12:04.277Z,99657.53
2023-04-23T23:14:31.906Z,99655.00
2023-04-23T23:16:59.049Z,99653.13
2023-04-23T23:19:30.971Z,99645.25
2023-04-23T23:21:57.634Z,99637.19
2023-04-23T23:24:24.225Z,99635.75
2023-04-23T23:26:51.132Z,99638.59
2023-04-23T23:29:17.831Z,99631.81
2023-04-23T23:31:45.091Z,99633.44
2023-04-23T23:34:12.137Z,99630.97
2023-04-23T23:36:38.754Z,99636.81
2023-04-23T23:39:06.748Z,99630.78
2023-04-23T23:41:33.485Z,99627.22
2023-04-23T23:44:00.087Z,99633.75
2023-04-23T23:46:26.697Z,99621.91
2023-04-23T23:48:53.432Z,99623.59
2023-04-23T23:51:20.199Z,99619.91
2023-04-23T23:53:46.953Z,99620.22
2023-04-23T23:56:13.519Z,99620.53
2023-04-23T23:58:40.106Z,99610.91
